Latest Coastal Weather Observations for Karratha

IDW60701

Issued at 11:23 am WST Wednesday 28 September 2016 (issued every 10 minutes, with the page automatically refreshed every 10 minutes)

About coastal observations | Map of coastal stations | Coastal observations for WA | Marine services | Other Formats
Station Details ID: 004083 Name: KARRATHA AERO Lat: -20.71 Lon: 116.77 Height: 5.3 m
Data from the previous 72 hours. | See also: Recent months at Karratha
Date/Time
WST
Temp
°C
Wind Pressure Rain since
9am
mm
Weather Cloud Vis
km
Sea
Height
m
Swell
Dir  Spd
kts
Gust
kts
hPa Trend Height
m
Period
s
Dir
28/11:00am 29.0 NE 11 17 1012.5 - 0.0 - - 10 - - - -
28/10:30am 31.0 ENE 11 14 1012.8 - 0.0 - - 10 - - - -
28/10:00am 29.8 ENE 10 13 1013.1 - 0.0 - - 10 - - - -
28/09:30am 28.7 ESE 10 14 1013.1 - 0.0 - - 10 - - - -
28/09:00am 27.7 ESE 13 16 1013.2 - 0.0 - - 10 - - - -
28/08:30am 27.0 SE 11 15 1013.1 - 0.0 - - 10 - - - -
28/08:00am 25.1 S 9 11 1012.8 - 0.0 - - 10 - - - -
28/07:30am 22.0 S 8 10 1012.5 - 0.0 - - 10 - - - -
28/07:00am 18.8 S 5 6 1012.2 - 0.0 - - 10 - - - -
28/06:30am 16.0 SSW 7 10 1011.7 - 0.0 - - 10 - - - -
28/06:00am 16.1 S 8 9 1011.4 - 0.0 - - 10 - - - -
28/05:30am 16.6 SSW 7 8 1011.2 - 0.0 - - 10 - - - -
28/05:00am 16.7 SSW 5 6 1010.8 - 0.0 - - 10 - - - -
28/04:30am 16.7 S 6 6 1010.4 - 0.0 - - 10 - - - -
28/04:19am 16.6 S 6 6 1010.3 - 0.0 - Partly cloudy 10 - - - -
28/04:16am 16.6 SSE 6 6 1010.2 - 0.0 - Partly cloudy 10 - - - -
28/04:00am 16.8 S 5 7 1010.2 - 0.0 - Partly cloudy 1 - - - -
28/03:42am 17.3 SSW 5 6 1010.1 - 0.0 - Partly cloudy 1 - - - -
28/03:35am 17.7 SSW 6 6 1010.1 - 0.0 - Partly cloudy 4 - - - -
28/03:30am 17.9 SSW 5 6 1010.2 - 0.0 - - 10 - - - -
28/03:00am 18.1 S 4 6 1010.2 - 0.0 - - 10 - - - -
28/02:30am 18.7 S 6 7 1010.2 - 0.0 - - 10 - - - -
28/02:00am 19.2 S 4 5 1010.3 - 0.0 - - 10 - - - -
28/01:30am 19.5 S 4 5 1010.4 - 0.0 - - 10 - - - -
28/01:00am 19.9 SSW 5 6 1010.5 - 0.0 - - 10 - - - -
28/12:30am 20.1 CALM 0 0 1010.6 - 0.0 - - 10 - - - -
28/12:00am 22.5 NNW 3 4 1010.9 - 0.0 - - 10 - - - -
 
Date/Time
WST
Temp
°C
Wind Pressure Rain since
9am
mm
Weather Cloud Vis
km
Sea
Height
m
Swell
Dir  Spd
kts
Gust
kts
hPa Trend Height
m
Period
s
Dir
27/11:30pm 22.6 NNW 3 4 1011.3 - 0.0 - - 10 - - - -
27/11:00pm 22.8 NNW 3 4 1011.3 - 0.0 - - 10 - - - -
27/10:30pm 22.9 CALM 0 0 1011.4 - 0.0 - - 10 - - - -
27/10:00pm 23.4 W 5 6 1011.5 - 0.0 - - 10 - - - -
27/09:30pm 23.7 W 8 10 1011.6 - 0.0 - - 10 - - - -
27/09:00pm 24.0 W 10 12 1011.6 - 0.0 - - 10 - - - -
27/08:30pm 24.2 W 10 12 1011.5 - 0.0 - - 10 - - - -
27/08:00pm 24.7 W 8 11 1011.3 - 0.0 - - 10 - - - -
27/07:30pm 24.7 WNW 8 11 1011.1 - 0.0 - - 10 - - - -
27/07:00pm 24.8 WNW 10 12 1010.7 - 0.0 - - 10 - - - -
27/06:30pm 25.2 NW 9 12 1010.2 - 0.0 - - 10 - - - -
27/06:00pm 25.4 NW 9 11 1009.7 - 0.0 - - 10 - - - -
27/05:30pm 25.5 NNW 11 13 1009.3 - 0.0 - - 10 - - - -
27/05:00pm 26.0 NNW 10 14 1009.1 - 0.0 - - 10 - - - -
27/04:30pm 26.6 NNW 11 15 1008.9 - 0.0 - - 10 - - - -
27/04:00pm 27.9 NNW 12 16 1008.8 - 0.0 - - 10 - - - -
27/03:30pm 27.9 N 11 15 1008.7 - 0.0 - - 10 - - - -
27/03:00pm 28.2 NNW 12 15 1008.7 - 0.0 - - 10 - - - -
27/02:30pm 29.6 NNE 10 13 1008.9 - 0.0 - - 10 - - - -
27/02:00pm 28.4 NNE 12 14 1009.2 - 0.0 - - 10 - - - -
27/01:30pm 27.8 NNE 12 15 1009.5 - 0.0 - - 10 - - - -
27/01:00pm 27.7 NNE 12 16 1010.0 - 0.0 - - 10 - - - -
27/12:30pm 28.2 NNE 12 17 1010.3 - 0.0 - - 10 - - - -
27/12:00pm 27.3 NNE 14 17 1010.6 - 0.0 - - 10 - - - -
27/11:30am 27.8 NE 15 20 1010.9 - 0.0 - - 10 - - - -
27/11:00am 28.0 NE 14 17 1011.3 - 0.0 - - 10 - - - -
27/10:30am 27.9 NE 13 17 1011.6 - 0.0 - - 10 - - - -
27/10:00am 27.7 NE 13 16 1011.9 - 0.0 - - 10 - - - -
27/09:30am 26.5 ENE 11 14 1012.0 - 0.0 - - 10 - - - -
27/09:00am 26.2 ENE 11 13 1012.0 - 0.0 - - 10 - - - -
27/08:30am 25.3 E 11 13 1011.9 - 0.0 - - 10 - - - -
27/08:00am 24.1 E 10 12 1011.8 - 0.0 - - 10 - - - -
27/07:30am 23.3 E 9 11 1011.6 - 0.0 - - 10 - - - -
27/07:00am 21.2 ESE 6 7 1011.2 - 0.0 - - 10 - - - -
27/06:30am 18.2 ESE 7 8 1010.7 - 0.0 - - 10 - - - -
27/06:00am 17.0 ESE 5 7 1010.6 - 0.0 - Mostly clear 10 - - - -
27/05:30am 18.2 ESE 7 8 1010.5 - 0.0 - Partly cloudy 10 - - - -
27/05:00am 17.8 ESE 3 5 1010.3 - 0.0 - Partly cloudy 10 - - - -
27/04:30am 17.2 ESE 6 7 1009.9 - 0.0 - Partly cloudy 10 - - - -
27/04:00am 17.6 ESE 6 8 1009.7 - 0.0 - Partly cloudy 10 - - - -
27/03:30am 16.9 E 1 4 1009.6 - 0.0 - - 10 - - - -
27/03:00am 16.9 ESE 3 4 1009.6 - 0.0 - - 10 - - - -
27/02:30am 16.9 ESE 4 5 1009.8 - 0.0 - - 10 - - - -
27/02:00am 17.3 SE 3 4 1009.9 - 0.0 - - 10 - - - -
27/01:30am 17.5 S 5 6 1010.2 - 0.0 - - 10 - - - -
27/01:00am 17.8 S 9 9 1010.2 - 0.0 - - 10 - - - -
27/12:30am 18.3 S 5 6 1010.4 - 0.0 - - 10 - - - -
27/12:00am 18.3 CALM 0 0 1010.7 - 0.0 - - 10 - - - -
 
Date/Time
WST
Temp
°C
Wind Pressure Rain since
9am
mm
Weather Cloud Vis
km
Sea
Height
m
Swell
Dir  Spd
kts
Gust
kts
hPa Trend Height
m
Period
s
Dir
26/11:30pm 19.0 CALM 0 0 1011.2 - 0.0 - - 10 - - - -
26/11:00pm 20.5 CALM 0 0 1011.4 - 0.0 - - 10 - - - -
26/10:30pm 22.0 WNW 3 5 1011.5 - 0.0 - - 10 - - - -
26/10:00pm 23.4 W 6 8 1011.6 - 0.0 - - 10 - - - -
26/09:30pm 23.7 W 7 11 1011.8 - 0.0 - - 10 - - - -
26/09:00pm 23.8 W 7 8 1011.6 - 0.0 - - 10 - - - -
26/08:30pm 24.7 W 7 10 1011.4 - 0.0 - - 10 - - - -
26/08:00pm 25.1 W 8 11 1011.1 - 0.0 - - 10 - - - -
26/07:30pm 25.3 W 9 11 1010.8 - 0.0 - - 10 - - - -
26/07:00pm 25.5 W 10 13 1010.5 - 0.0 - - 10 - - - -
26/06:30pm 25.8 W 12 15 1010.0 - 0.0 - - 10 - - - -
26/06:00pm 26.4 W 14 16 1009.6 - 0.0 - - 10 - - - -
26/05:30pm 27.4 W 12 15 1009.3 - 0.0 - - 10 - - - -
26/05:00pm 28.7 W 13 15 1009.1 - 0.0 - - 10 - - - -
26/04:30pm 29.0 W 14 17 1008.8 - 0.0 - - 10 - - - -
26/04:00pm 29.9 WNW 12 14 1008.6 - 0.0 - - 10 - - - -
26/03:30pm 31.2 NW 10 13 1008.5 - 0.0 - - 10 - - - -
26/03:00pm 31.2 NNW 9 13 1008.4 - 0.0 - - 10 - - - -
26/02:30pm 31.2 NNE 11 15 1008.4 - 0.0 - - 10 - - - -
26/02:00pm 31.9 NNE 11 14 1008.5 - 0.0 - - 10 - - - -
26/01:30pm 31.2 NNE 11 15 1008.8 - 0.0 - - 10 - - - -
26/01:00pm 31.9 NNE 11 15 1009.1 - 0.0 - - 10 - - - -
26/12:30pm 31.6 NNE 11 15 1009.5 - 0.0 - - 10 - - - -
26/12:00pm 32.3 ESE 9 17 1009.9 - 0.0 - - 10 - - - -
26/11:30am 31.4 SE 10 17 1010.5 - 0.0 - - 10 - - - -
26/11:00am 30.7 SE 12 19 1010.9 - 0.0 - - 10 - - - -
26/10:30am 30.3 SSE 11 18 1011.1 - 0.0 - - 10 - - - -
26/10:00am 29.5 SE 11 19 1011.5 - 0.0 - - 10 - - - -
26/09:30am 28.9 SSE 11 16 1011.4 - 0.0 - - 10 - - - -
26/09:00am 26.7 S 11 14 1011.7 - 0.0 - - 10 - - - -
26/08:30am 23.4 WSW 8 10 1011.5 - 0.0 - - 10 - - - -
26/08:00am 21.9 WSW 6 7 1011.1 - 0.0 - - 10 - - - -
26/07:30am 21.5 WSW 7 9 1011.1 - 0.0 - - 10 - - - -
26/07:00am 19.7 WSW 7 9 1010.7 - 0.0 - - 10 - - - -
26/06:30am 18.3 WSW 9 11 1010.5 - 0.0 - - 10 - - - -
26/06:00am 18.9 WSW 8 10 1010.4 - 0.0 - - 10 - - - -
26/05:30am 19.0 WSW 8 8 1010.0 - 0.0 - - 10 - - - -
26/05:00am 19.6 WSW 7 8 1009.7 - 0.0 - - 10 - - - -
26/04:30am 20.0 WSW 8 9 1009.5 - 0.0 - - 10 - - - -
26/04:00am 20.2 WSW 9 10 1009.4 - 0.0 - - 10 - - - -
26/03:30am 20.3 WSW 9 11 1009.2 - 0.0 - - 10 - - - -
26/03:00am 20.5 WSW 10 12 1009.3 - 0.0 - - 10 - - - -
26/02:30am 20.7 WSW 11 14 1009.3 - 0.0 - - 10 - - - -
26/02:00am 20.9 WSW 12 14 1009.5 - 0.0 - - 10 - - - -
26/01:30am 21.1 WSW 12 15 1009.4 - 0.0 - - 10 - - - -
26/01:00am 21.3 WSW 13 17 1009.5 - 0.0 - - 10 - - - -
26/12:30am 21.7 WSW 15 18 1009.9 - 0.0 - - 10 - - - -
26/12:00am 22.1 WSW 15 19 1010.4 - 0.0 - Mostly clear 10 - - - -
 
Date/Time
WST
Temp
°C
Wind Pressure Rain since
9am
mm
Weather Cloud Vis
km
Sea
Height
m
Swell
Dir  Spd
kts
Gust
kts
hPa Trend Height
m
Period
s
Dir
25/11:30pm 22.2 WSW 13 17 1010.8 - 0.0 - - 10 - - - -
25/11:00pm 22.4 WSW 14 17 1011.0 - 0.0 - - 10 - - - -
25/10:30pm 22.7 WSW 15 19 1011.2 - 0.0 - - 10 - - - -
25/10:00pm 22.6 W 15 19 1011.2 - 0.0 - - 10 - - - -
25/09:30pm 22.6 W 16 20 1011.3 - 0.0 - - 10 - - - -
25/09:00pm 22.8 W 17 22 1011.1 - 0.0 - - 10 - - - -
25/08:30pm 23.0 W 19 24 1010.8 - 0.0 - - 10 - - - -
25/08:00pm 23.2 W 19 23 1010.5 - 0.0 - - 10 - - - -
25/07:30pm 23.3 W 19 23 1010.3 - 0.0 - - 10 - - - -
25/07:00pm 23.5 W 19 24 1009.9 - 0.0 - - 10 - - - -
25/06:30pm 23.8 W 20 25 1009.5 - 0.0 - - 10 - - - -
25/06:00pm 24.3 W 19 24 1009.1 - 0.0 - - 10 - - - -
25/05:30pm 24.6 W 20 25 1008.7 - 0.0 - - 10 - - - -
25/05:00pm 25.6 W 18 24 1008.4 - 0.0 - - 10 - - - -
25/04:30pm 26.2 W 19 23 1008.3 - 0.0 - - 10 - - - -
25/04:00pm 26.0 W 21 25 1008.0 - 0.0 - - 10 - - - -
25/03:30pm 27.4 W 18 22 1008.0 - 0.0 - - 10 - - - -
25/03:00pm 27.8 W 19 23 1008.1 - 0.0 - - 10 - - - -
25/02:30pm 28.0 W 17 20 1008.3 - 0.0 - - 10 - - - -
25/02:00pm 28.2 W 16 19 1008.6 - 0.0 - - 10 - - - -
25/01:30pm 28.4 WNW 13 18 1008.8 - 0.0 - - 10 - - - -
25/01:00pm 29.0 WNW 13 16 1009.4 - 0.0 - - 10 - - - -
25/12:30pm 28.2 WNW 13 15 1009.9 - 0.0 - - 10 - - - -
25/12:00pm 27.4 NW 12 15 1010.4 - 0.0 - - 10 - - - -
25/11:30am 27.6 WNW 11 14 1010.7 - 0.0 - - 10 - - - -

Other Formats:

Comma delimited format used in spreadsheet applications
http://www.bom.gov.au/fwo/IDW60701/IDW60701.95307.axf

JavaScript Object Notation format (JSON) in row-major order
http://www.bom.gov.au/fwo/IDW60701/IDW60701.95307.json